Time;durP1;ratioP1;P1;durP2;ratioP2;P2;SDS_P1;SDS_P2;PMS_P1;PMS_P2;Temp;Humidity;BMP_temperature;BMP_pressure;BME280_temperature;BME280_humidity;BME280_pressure;Samples;Min_cycle;Max_cycle;Signal;HPM_P1;HPM_P2
2024/02/04 00:00:44;;;;;;;64.03;40.13;;;6.00;99.90;;;;;;6245651;23;20366;-71
2024/02/04 00:03:10;;;;;;;65.47;41.50;;;6.00;99.90;;;;;;6218714;23;20015;-71
2024/02/04 00:05:36;;;;;;;60.63;39.27;;;6.00;99.90;;;;;;6245299;23;20445;-71
2024/02/04 00:08:02;;;;;;;65.60;40.67;;;6.00;99.90;;;;;;6245486;23;19996;-71
2024/02/04 00:10:28;;;;;;;65.40;40.03;;;6.00;99.90;;;;;;6245551;23;20008;-70
2024/02/04 00:12:54;;;;;;;53.67;34.67;;;6.00;99.90;;;;;;6245328;23;20004;-71
2024/02/04 00:15:20;;;;;;;66.00;38.10;;;6.00;99.90;;;;;;6245284;23;20069;-71
2024/02/04 00:17:45;;;;;;;60.97;37.00;;;6.00;99.90;;;;;;6245202;23;20007;-70
2024/02/04 00:20:11;;;;;;;59.50;37.27;;;6.00;99.90;;;;;;6245467;23;19996;-71
2024/02/04 00:22:37;;;;;;;59.87;36.37;;;6.00;99.90;;;;;;6245480;23;20011;-71
2024/02/04 00:25:06;;;;;;;58.07;36.07;;;6.00;99.90;;;;;;6245094;23;20012;-71
2024/02/04 00:27:32;;;;;;;56.80;37.10;;;6.00;99.90;;;;;;6245270;23;20334;-70
2024/02/04 00:29:58;;;;;;;67.53;42.30;;;6.00;99.90;;;;;;6245185;23;20000;-71
2024/02/04 00:32:25;;;;;;;68.73;42.27;;;6.00;99.90;;;;;;6245052;23;20137;-70
2024/02/04 00:34:52;;;;;;;63.33;39.43;;;6.00;99.90;;;;;;6245624;23;20326;-71
2024/02/04 00:37:17;;;;;;;64.07;39.80;;;6.00;99.90;;;;;;6245369;23;20369;-71
2024/02/04 00:39:43;;;;;;;65.90;40.90;;;5.90;99.90;;;;;;6245126;23;20083;-71
2024/02/04 00:42:10;;;;;;;66.00;41.97;;;5.90;99.90;;;;;;6244968;23;20004;-71
2024/02/04 00:44:36;;;;;;;69.13;42.50;;;6.00;99.90;;;;;;6245261;23;20004;-70
2024/02/04 00:47:02;;;;;;;66.83;41.10;;;6.00;99.90;;;;;;6244989;23;20054;-71
2024/02/04 00:49:27;;;;;;;73.13;42.97;;;5.90;99.90;;;;;;6245058;23;19996;-71
2024/02/04 00:51:54;;;;;;;77.13;44.47;;;5.90;99.90;;;;;;6244812;23;20008;-71
2024/02/04 00:54:19;;;;;;;67.03;40.43;;;5.90;99.90;;;;;;6244896;23;19996;-71
2024/02/04 00:56:45;;;;;;;63.90;40.27;;;5.90;99.90;;;;;;6244992;23;20011;-71
2024/02/04 00:59:12;;;;;;;74.87;39.03;;;5.90;99.90;;;;;;6244147;23;20000;-71
2024/02/04 01:01:38;;;;;;;63.80;37.03;;;5.80;99.90;;;;;;6244472;23;19999;-71
2024/02/04 01:04:04;;;;;;;61.63;36.40;;;5.90;99.90;;;;;;6244626;23;20000;-71
2024/02/04 01:06:30;;;;;;;56.30;36.67;;;5.90;99.90;;;;;;6244938;23;20374;-71
2024/02/04 01:08:56;;;;;;;60.87;36.73;;;5.80;99.90;;;;;;6244746;23;20418;-71
2024/02/04 01:11:23;;;;;;;61.27;36.37;;;5.80;99.90;;;;;;6244660;23;20411;-70
2024/02/04 01:13:48;;;;;;;58.67;37.33;;;5.80;99.90;;;;;;6244589;23;20064;-71
2024/02/04 01:16:14;;;;;;;55.30;34.87;;;5.80;99.90;;;;;;6244740;23;20012;-70
2024/02/04 01:18:40;;;;;;;57.07;34.27;;;5.80;99.90;;;;;;6244649;23;20079;-71
2024/02/04 01:21:06;;;;;;;59.03;35.47;;;5.80;99.90;;;;;;6244907;23;20004;-71
2024/02/04 01:23:31;;;;;;;53.07;32.00;;;5.70;99.90;;;;;;6245102;23;20066;-71
2024/02/04 01:25:57;;;;;;;57.17;33.17;;;5.70;99.90;;;;;;6244952;23;20008;-71
2024/02/04 01:28:23;;;;;;;51.37;33.43;;;5.80;99.90;;;;;;6245049;23;20034;-71
2024/02/04 01:30:48;;;;;;;50.23;32.83;;;5.80;99.90;;;;;;6244695;23;20004;-71
2024/02/04 01:33:14;;;;;;;56.60;32.87;;;5.80;99.90;;;;;;6244801;23;20433;-71
2024/02/04 01:35:40;;;;;;;54.57;32.70;;;5.80;99.90;;;;;;6244884;23;20032;-71
2024/02/04 01:38:06;;;;;;;50.33;32.13;;;5.80;99.90;;;;;;6244852;23;20000;-71
2024/02/04 01:40:32;;;;;;;50.00;32.00;;;5.80;99.90;;;;;;6245154;23;20000;-71
2024/02/04 01:42:58;;;;;;;51.20;31.17;;;5.80;99.90;;;;;;6245085;23;20054;-71
2024/02/04 01:45:24;;;;;;;55.33;33.27;;;5.80;99.90;;;;;;6245102;23;20075;-71
2024/02/04 01:47:50;;;;;;;51.93;33.63;;;5.70;99.90;;;;;;6244995;23;20095;-71
2024/02/04 01:50:16;;;;;;;54.87;33.17;;;5.70;99.90;;;;;;6245351;23;20126;-71
2024/02/04 01:52:43;;;;;;;49.87;33.43;;;5.70;99.90;;;;;;6245356;23;20326;-70
2024/02/04 01:55:09;;;;;;;52.00;33.47;;;5.70;99.90;;;;;;6244836;23;20387;-71
2024/02/04 01:57:35;;;;;;;61.20;37.67;;;5.70;99.90;;;;;;6243819;23;20027;-71
2024/02/04 02:00:04;;;;;;;59.20;36.93;;;5.70;99.90;;;;;;6241417;23;20434;-71
2024/02/04 02:02:30;;;;;;;58.93;37.40;;;5.60;99.90;;;;;;6243607;23;20022;-71
2024/02/04 02:04:57;;;;;;;61.27;38.07;;;5.60;99.90;;;;;;6245096;23;20004;-71
2024/02/04 02:07:27;;;;;;;54.70;35.93;;;5.50;99.90;;;;;;6246111;23;20469;-71
2024/02/04 02:09:53;;;;;;;50.30;34.23;;;5.50;99.90;;;;;;6246445;23;20004;-71
2024/02/04 02:12:30;;;;;;;52.70;32.33;;;5.60;99.90;;;;;;6246506;23;20008;-71
2024/02/04 02:15:13;;;;;;;50.10;32.20;;;5.70;99.90;;;;;;6246953;23;19996;-70
2024/02/04 02:18:02;;;;;;;52.20;33.00;;;5.60;99.90;;;;;;6246976;23;19996;-71
2024/02/04 02:20:41;;;;;;;51.23;32.13;;;5.60;99.90;;;;;;6246415;23;20011;-71
2024/02/04 02:23:14;;;;;;;50.33;32.37;;;5.50;99.90;;;;;;6246259;23;20000;-71
2024/02/04 02:25:41;;;;;;;51.72;30.65;;;5.50;99.90;;;;;;6246152;23;20373;-71
2024/02/04 02:28:07;;;;;;;52.37;34.07;;;5.60;99.90;;;;;;6245624;23;20342;-71
2024/02/04 02:30:33;;;;;;;50.47;30.37;;;5.60;99.90;;;;;;6246487;23;20326;-71
2024/02/04 02:33:00;;;;;;;48.07;31.63;;;5.50;99.90;;;;;;6246802;23;20079;-71
2024/02/04 02:35:26;;;;;;;48.50;31.27;;;5.50;99.90;;;;;;6246605;23;20078;-71
2024/02/04 02:38:13;;;;;;;46.70;30.77;;;5.40;99.90;;;;;;6246541;23;20024;-71
2024/02/04 02:41:00;;;;;;;48.87;31.27;;;5.40;99.90;;;;;;6246414;23;20004;-71
2024/02/04 02:43:28;;;;;;;53.43;31.07;;;5.30;99.90;;;;;;6218580;23;20087;-70
2024/02/04 02:45:54;;;;;;;51.37;30.23;;;5.30;99.90;;;;;;6245965;23;20500;-71
2024/02/04 02:48:21;;;;;;;47.40;30.73;;;5.30;99.90;;;;;;6246238;23;20004;-71
2024/02/04 02:50:48;;;;;;;48.90;31.63;;;5.20;99.90;;;;;;6246032;23;20004;-71
2024/02/04 02:53:13;;;;;;;46.27;28.90;;;5.20;99.90;;;;;;6246260;23;20000;-71
2024/02/04 02:55:40;;;;;;;42.20;29.47;;;5.20;99.90;;;;;;6246160;23;20099;-71
2024/02/04 02:58:07;;;;;;;46.57;29.93;;;5.20;99.90;;;;;;6246036;23;19996;-71
2024/02/04 03:00:33;;;;;;;43.23;29.30;;;5.10;99.90;;;;;;6246176;23;20012;-71
2024/02/04 03:02:59;;;;;;;43.57;29.97;;;5.10;99.90;;;;;;6246343;23;20329;-71
2024/02/04 03:05:25;;;;;;;49.73;31.23;;;4.90;99.90;;;;;;6246267;23;20011;-71
2024/02/04 03:07:50;;;;;;;48.63;30.33;;;4.90;99.90;;;;;;6246439;23;20036;-71
2024/02/04 03:10:16;;;;;;;49.57;29.87;;;4.90;99.90;;;;;;6245992;23;20000;-71
2024/02/04 03:12:42;;;;;;;47.33;30.27;;;4.90;99.90;;;;;;6245350;23;20011;-71
2024/02/04 03:15:08;;;;;;;50.20;29.97;;;4.90;99.90;;;;;;6246047;23;20378;-71
2024/02/04 03:17:34;;;;;;;45.83;29.23;;;4.90;99.90;;;;;;6246459;23;20016;-71
2024/02/04 03:20:00;;;;;;;42.90;27.67;;;4.90;99.90;;;;;;6246759;23;20040;-71
2024/02/04 03:22:25;;;;;;;46.50;29.33;;;4.90;99.90;;;;;;6246987;23;20091;-71
2024/02/04 03:24:51;;;;;;;45.70;28.90;;;4.80;99.90;;;;;;6246110;23;20016;-71
2024/02/04 03:27:18;;;;;;;49.10;29.23;;;4.80;99.90;;;;;;6246140;23;20341;-71
2024/02/04 03:29:44;;;;;;;47.50;29.83;;;4.70;99.90;;;;;;6246385;23;20000;-71
2024/02/04 03:32:11;;;;;;;44.23;27.37;;;4.70;99.90;;;;;;6246557;23;20335;-70
2024/02/04 03:34:37;;;;;;;44.87;27.87;;;4.70;99.90;;;;;;6246306;23;20434;-71
2024/02/04 03:37:03;;;;;;;40.13;26.70;;;4.70;99.90;;;;;;6246575;23;20004;-71
2024/02/04 03:39:29;;;;;;;42.57;26.27;;;4.70;99.90;;;;;;6246791;23;20000;-71
2024/02/04 03:41:54;;;;;;;39.67;27.00;;;4.70;99.90;;;;;;6245949;23;20011;-70
2024/02/04 03:44:20;;;;;;;37.00;25.27;;;4.70;99.90;;;;;;6246033;23;20003;-70
2024/02/04 03:46:50;;;;;;;37.37;25.50;;;4.70;99.90;;;;;;6245858;23;20036;-71
2024/02/04 03:49:16;;;;;;;36.20;23.27;;;4.70;99.90;;;;;;6245924;23;19996;-70
2024/02/04 03:51:42;;;;;;;33.53;21.27;;;4.80;99.90;;;;;;6245515;23;20004;-71
2024/02/04 03:54:08;;;;;;;32.23;20.13;;;4.80;99.90;;;;;;6245892;23;19996;-71
2024/02/04 03:56:34;;;;;;;36.77;22.33;;;4.80;99.90;;;;;;6246319;23;20075;-71
2024/02/04 03:58:59;;;;;;;31.77;21.07;;;4.80;99.90;;;;;;6246148;23;19997;-71
2024/02/04 04:01:25;;;;;;;33.60;21.80;;;4.80;99.90;;;;;;6246157;23;20008;-71
2024/02/04 04:03:51;;;;;;;34.07;22.03;;;4.80;99.90;;;;;;6245972;23;20007;-71
2024/02/04 04:06:17;;;;;;;34.87;23.10;;;4.70;99.90;;;;;;6246005;23;20039;-70
2024/02/04 04:08:42;;;;;;;36.37;25.27;;;4.70;99.90;;;;;;6245956;23;20004;-70
2024/02/04 04:11:09;;;;;;;44.07;26.67;;;4.70;99.90;;;;;;6219126;23;20091;-71
2024/02/04 04:13:36;;;;;;;45.07;27.50;;;4.80;99.90;;;;;;6219186;23;20038;-70
2024/02/04 04:16:05;;;;;;;45.00;27.63;;;4.80;99.90;;;;;;6246070;23;20054;-70
2024/02/04 04:18:31;;;;;;;40.73;26.70;;;4.70;99.90;;;;;;6245968;23;20007;-70
2024/02/04 04:20:57;;;;;;;44.17;27.07;;;4.70;99.90;;;;;;6245937;23;19997;-71
2024/02/04 04:23:23;;;;;;;41.87;27.43;;;4.60;99.90;;;;;;6245376;23;20016;-71
2024/02/04 04:25:49;;;;;;;43.17;26.57;;;4.60;99.90;;;;;;6245272;23;19997;-71
2024/02/04 04:28:14;;;;;;;44.47;28.53;;;4.40;99.90;;;;;;6245494;23;20000;-71
2024/02/04 04:30:40;;;;;;;41.93;27.10;;;4.50;99.90;;;;;;6245860;23;20050;-71
2024/02/04 04:33:06;;;;;;;42.73;28.63;;;4.40;99.90;;;;;;6245304;23;20004;-71
2024/02/04 04:35:32;;;;;;;46.73;26.70;;;4.30;99.90;;;;;;6245282;23;20047;-70
2024/02/04 04:37:58;;;;;;;43.07;28.20;;;4.30;99.90;;;;;;6245492;23;20000;-71
2024/02/04 04:40:24;;;;;;;45.03;26.93;;;4.40;99.90;;;;;;6245559;23;20011;-70
2024/02/04 04:42:49;;;;;;;44.37;27.33;;;4.30;99.90;;;;;;6245421;23;20003;-70
2024/02/04 04:45:15;;;;;;;37.97;25.80;;;4.40;99.90;;;;;;6218684;23;20013;-70
2024/02/04 04:47:41;;;;;;;42.07;26.33;;;4.30;99.90;;;;;;6245668;23;20012;-71
2024/02/04 04:50:07;;;;;;;41.27;26.60;;;4.30;99.90;;;;;;6245427;23;20015;-71
2024/02/04 04:52:33;;;;;;;35.87;23.97;;;4.30;99.90;;;;;;6245572;23;20090;-70
2024/02/04 04:54:58;;;;;;;34.87;24.50;;;4.30;99.90;;;;;;6245626;23;20000;-71
2024/02/04 04:57:24;;;;;;;40.43;24.40;;;4.20;99.90;;;;;;6246128;23;20007;-71
2024/02/04 04:59:50;;;;;;;36.53;21.87;;;4.30;99.90;;;;;;6245451;23;20324;-71
2024/02/04 05:02:16;;;;;;;35.57;21.17;;;4.30;99.90;;;;;;6245838;23;20020;-71
2024/02/04 05:04:45;;;;;;;37.73;23.03;;;4.30;99.90;;;;;;6245613;23;20007;-71
2024/02/04 05:07:11;;;;;;;31.07;21.57;;;4.30;99.90;;;;;;6244914;23;20008;-70
2024/02/04 05:09:37;;;;;;;35.30;22.43;;;4.30;99.90;;;;;;6245308;23;20053;-71
2024/02/04 05:12:03;;;;;;;31.73;21.70;;;4.30;99.90;;;;;;6245496;23;20087;-71
2024/02/04 05:14:29;;;;;;;34.03;22.73;;;4.30;99.90;;;;;;6245502;23;20426;-70
2024/02/04 05:16:55;;;;;;;37.53;23.63;;;4.30;99.90;;;;;;6245046;23;20000;-71
2024/02/04 05:19:21;;;;;;;36.80;23.93;;;4.30;99.90;;;;;;6245195;23;20050;-70
2024/02/04 05:21:46;;;;;;;36.77;23.57;;;4.20;99.90;;;;;;6245415;23;20039;-71
2024/02/04 05:24:12;;;;;;;37.60;24.23;;;4.20;99.90;;;;;;6245486;23;20008;-71
2024/02/04 05:26:38;;;;;;;36.43;23.70;;;4.10;99.90;;;;;;6245335;23;20012;-71
2024/02/04 05:29:04;;;;;;;38.80;23.73;;;4.20;99.90;;;;;;6245285;23;20024;-70
2024/02/04 05:31:29;;;;;;;36.53;23.40;;;3.90;99.90;;;;;;6245596;23;20011;-71
2024/02/04 05:33:56;;;;;;;41.00;24.90;;;4.00;99.90;;;;;;6245509;23;20062;-70
2024/02/04 05:36:22;;;;;;;38.23;23.93;;;;;;;;;;6245061;23;20050;-71
2024/02/04 05:38:48;;;;;;;39.33;24.77;;;;;;;;;;6245261;23;20001;-70
2024/02/04 05:41:14;;;;;;;39.10;25.07;;;;;;;;;;6245295;23;20378;-71
2024/02/04 05:43:40;;;;;;;37.70;23.90;;;;;;;;;;6244929;23;20007;-70
2024/02/04 05:46:07;;;;;;;40.63;24.90;;;;;;;;;;6218390;23;20355;-70
2024/02/04 05:48:33;;;;;;;38.20;24.53;;;;;;;;;;6245205;23;20381;-70
2024/02/04 05:51:00;;;;;;;34.70;24.23;;;;;;;;;;6245076;23;19997;-70
2024/02/04 05:53:26;;;;;;;39.63;25.23;;;;;;;;;;6245542;23;20035;-71
2024/02/04 05:55:52;;;;;;;34.27;21.53;;;;;;;;;;6244762;23;20001;-71
2024/02/04 05:58:18;;;;;;;41.67;24.63;;;;;;;;;;6217850;23;20004;-70
2024/02/04 06:00:44;;;;;;;39.90;24.43;;;;;;;;;;6245204;23;20007;-71
2024/02/04 06:03:10;;;;;;;34.13;23.37;;;;;;;;;;6245130;23;20008;-71
2024/02/04 06:05:36;;;;;;;35.03;23.60;;;;;;;;;;6245167;23;20005;-71
2024/02/04 06:08:03;;;;;;;36.80;23.27;;;;;;;;;;6244977;23;20015;-71
2024/02/04 06:10:29;;;;;;;40.73;25.47;;;;;;;;;;6217971;23;20035;-71
2024/02/04 06:12:55;;;;;;;41.53;26.00;;;;;;;;;;6245340;23;20000;-71
2024/02/04 06:15:21;;;;;;;36.83;23.97;;;;;;;;;;6245056;23;20004;-70
2024/02/04 06:17:47;;;;;;;36.10;24.20;;;;;;;;;;6245138;23;20415;-71
2024/02/04 06:20:13;;;;;;;36.50;23.37;;;;;;;;;;6245275;23;20330;-71
2024/02/04 06:22:39;;;;;;;39.73;24.77;;;;;;;;;;6245306;23;20173;-71
2024/02/04 06:25:06;;;;;;;37.07;24.53;;;;;;;;;;6245131;23;20530;-71
2024/02/04 06:27:31;;;;;;;39.03;24.70;;;3.70;99.90;;;;;;6244908;23;20009;-71
2024/02/04 06:29:57;;;;;;;35.17;23.93;;;3.60;99.90;;;;;;6245264;23;20053;-71
2024/02/04 06:32:24;;;;;;;35.43;23.67;;;3.60;99.90;;;;;;6244768;23;20004;-71
2024/02/04 06:34:51;;;;;;;37.43;23.47;;;3.60;99.90;;;;;;6245092;23;20004;-71
2024/02/04 06:37:17;;;;;;;36.37;22.07;;;3.60;99.90;;;;;;6244531;23;20057;-72
2024/02/04 06:39:43;;;;;;;35.13;23.20;;;3.60;99.90;;;;;;6245092;23;20004;-71
2024/02/04 06:42:08;;;;;;;35.27;22.37;;;3.70;99.90;;;;;;6244815;23;20377;-71
2024/02/04 06:44:34;;;;;;;37.17;23.40;;;3.70;99.90;;;;;;6244939;23;19996;-71
2024/02/04 06:47:00;;;;;;;37.27;23.07;;;3.70;99.90;;;;;;6246107;23;20062;-71
2024/02/04 06:49:26;;;;;;;35.53;23.87;;;3.70;99.90;;;;;;6246919;23;20035;-71
2024/02/04 06:51:56;;;;;;;34.63;22.30;;;3.60;99.90;;;;;;6246689;23;20369;-71
2024/02/04 06:54:22;;;;;;;32.80;22.23;;;3.60;99.90;;;;;;6246997;23;20007;-71
2024/02/04 06:56:48;;;;;;;38.57;21.20;;;3.70;99.90;;;;;;6246750;23;20674;-71
2024/02/04 06:59:14;;;;;;;37.03;22.77;;;3.80;99.90;;;;;;6246523;23;20007;-71
2024/02/04 07:01:40;;;;;;;33.67;23.13;;;3.70;99.90;;;;;;6246111;23;20007;-71
2024/02/04 07:04:05;;;;;;;34.70;22.67;;;3.70;99.90;;;;;;6244153;23;20008;-72
2024/02/04 07:06:31;;;;;;;35.03;22.07;;;3.80;99.90;;;;;;6215485;23;20039;-72
2024/02/04 07:08:57;;;;;;;37.00;23.10;;;3.80;99.90;;;;;;6242667;23;20011;-71
2024/02/04 07:11:24;;;;;;;35.10;22.80;;;3.80;99.90;;;;;;6242800;23;20004;-71
2024/02/04 07:13:49;;;;;;;36.97;24.00;;;3.70;99.90;;;;;;6243949;23;20007;-71
2024/02/04 07:16:15;;;;;;;36.03;23.57;;;3.70;99.90;;;;;;6246644;23;20008;-71
2024/02/04 07:18:41;;;;;;;34.90;22.80;;;3.80;99.90;;;;;;6246550;23;20426;-74
2024/02/04 07:21:07;;;;;;;36.43;20.40;;;3.80;99.90;;;;;;6246226;23;20377;-71
2024/02/04 07:23:32;;;;;;;37.90;21.90;;;3.90;99.90;;;;;;6245559;23;20012;-70
2024/02/04 07:25:58;;;;;;;42.53;21.70;;;3.80;99.90;;;;;;6246089;23;20061;-71
2024/02/04 07:28:24;;;;;;;37.03;24.77;;;3.80;99.90;;;;;;6246215;23;20011;-72
2024/02/04 07:30:49;;;;;;;40.73;24.07;;;3.70;99.90;;;;;;6246400;23;20057;-71
2024/02/04 07:33:15;;;;;;;38.87;23.67;;;3.70;99.90;;;;;;6245949;23;20027;-71
2024/02/04 07:35:41;;;;;;;40.90;24.50;;;3.70;99.90;;;;;;6246012;23;20063;-71
2024/02/04 07:38:06;;;;;;;42.43;24.20;;;3.60;99.90;;;;;;6246664;23;20014;-71
2024/02/04 07:40:32;;;;;;;36.47;24.20;;;3.60;99.90;;;;;;6246200;23;20434;-71
2024/02/04 07:42:58;;;;;;;38.27;23.10;;;3.70;99.90;;;;;;6219288;23;20015;-71
2024/02/04 07:45:23;;;;;;;40.83;24.87;;;3.80;99.90;;;;;;6245916;23;20019;-71
2024/02/04 07:47:49;;;;;;;37.83;23.30;;;3.70;99.90;;;;;;6218924;23;20012;-73
2024/02/04 07:50:15;;;;;;;33.53;21.63;;;3.70;99.90;;;;;;6245946;23;20003;-71
2024/02/04 07:52:41;;;;;;;38.93;22.27;;;3.80;99.90;;;;;;6246157;23;20007;-74
2024/02/04 07:55:07;;;;;;;39.03;22.67;;;3.90;99.90;;;;;;6246141;23;20075;-72
2024/02/04 07:57:32;;;;;;;38.27;22.57;;;3.80;99.90;;;;;;6245650;23;20077;-73
2024/02/04 07:59:58;;;;;;;32.97;21.23;;;3.90;99.90;;;;;;6245558;23;20000;-73
2024/02/04 08:02:24;;;;;;;32.50;20.97;;;3.90;99.90;;;;;;6245539;23;20004;-72
2024/02/04 08:04:49;;;;;;;34.17;20.77;;;4.00;99.90;;;;;;6245558;23;20049;-72
2024/02/04 08:07:17;;;;;;;32.53;20.27;;;4.00;99.90;;;;;;6245988;23;20008;-71
2024/02/04 08:09:43;;;;;;;29.30;19.83;;;4.10;99.90;;;;;;6245991;23;20053;-72
2024/02/04 08:12:09;;;;;;;27.60;19.53;;;4.20;99.90;;;;;;6245947;23;20003;-73
2024/02/04 08:14:35;;;;;;;32.40;21.03;;;4.20;99.90;;;;;;6245889;23;20007;-72
2024/02/04 08:17:01;;;;;;;33.10;21.03;;;4.30;99.90;;;;;;6245651;23;20074;-73
2024/02/04 08:19:26;;;;;;;39.60;24.00;;;4.40;99.90;;;;;;6246149;23;20000;-73
2024/02/04 08:21:52;;;;;;;34.73;23.70;;;4.40;99.90;;;;;;6245741;23;20031;-73
2024/02/04 08:24:18;;;;;;;36.67;24.27;;;4.40;99.90;;;;;;6241437;23;20475;-72
2024/02/04 08:26:43;;;;;;;41.47;24.80;;;4.50;99.90;;;;;;6244635;23;20019;-73
2024/02/04 08:29:09;;;;;;;43.77;25.77;;;4.60;99.90;;;;;;6239290;23;20034;-70
2024/02/04 08:31:35;;;;;;;41.87;25.47;;;4.60;99.90;;;;;;6220431;23;20016;-72
2024/02/04 08:34:02;;;;;;;41.57;25.73;;;4.70;99.90;;;;;;6221101;23;20422;-72
2024/02/04 08:36:30;;;;;;;41.43;25.10;;;4.70;99.90;;;;;;6216679;23;20050;-70
2024/02/04 08:38:56;;;;;;;39.80;24.30;;;4.80;99.90;;;;;;6214995;23;19997;-70
2024/02/04 08:41:22;;;;;;;30.67;20.80;;;4.90;99.90;;;;;;6215624;23;20090;-72
2024/02/04 08:43:47;;;;;;;35.70;22.37;;;5.00;99.90;;;;;;6214342;23;19997;-72
2024/02/04 08:46:13;;;;;;;32.63;20.23;;;5.00;99.90;;;;;;6214412;23;20008;-70
2024/02/04 08:48:39;;;;;;;33.67;18.17;;;5.10;99.90;;;;;;6215069;23;20373;-71
2024/02/04 08:51:15;;;;;;;25.80;16.83;;;5.20;99.90;;;;;;6214698;23;20194;-72
2024/02/04 08:53:42;;;;;;;26.97;16.53;;;5.30;99.90;;;;;;6215281;23;19997;-72
2024/02/04 08:56:08;;;;;;;24.63;15.37;;;5.40;99.90;;;;;;6214378;23;20001;-71
2024/02/04 08:58:37;;;;;;;21.60;13.27;;;5.50;99.90;;;;;;6217316;23;20457;-72
2024/02/04 09:01:06;;;;;;;18.60;12.57;;;5.60;99.90;;;;;;6244324;23;20007;-71
2024/02/04 09:03:33;;;;;;;18.60;12.27;;;5.70;99.90;;;;;;6244544;23;20447;-72
2024/02/04 09:05:59;;;;;;;30.07;17.10;;;5.80;99.90;;;;;;6217336;23;20364;-74
2024/02/04 09:08:25;;;;;;;26.63;17.93;;;5.90;99.90;;;;;;6242616;23;20004;-75
2024/02/04 09:10:52;;;;;;;22.17;14.60;;;6.00;99.90;;;;;;6240809;23;20054;-75
2024/02/04 09:13:18;;;;;;;26.23;14.90;;;;;;;;;;6240977;23;20453;-72
2024/02/04 09:15:44;;;;;;;20.87;14.27;;;;;;;;;;6244021;23;20000;-72
2024/02/04 09:18:10;;;;;;;24.97;14.60;;;;;;;;;;6244470;23;20007;-71
2024/02/04 09:20:36;;;;;;;27.87;14.03;;;;;;;;;;6217419;23;20338;-74
2024/02/04 09:23:04;;;;;;;23.53;15.13;;;;;;;;;;6245089;23;20054;-72
2024/02/04 09:25:30;;;;;;;22.50;14.07;;;;;;;;;;6245413;23;20028;-75
2024/02/04 09:27:56;;;;;;;22.33;13.33;;;6.70;99.90;;;;;;6244246;23;20016;-74
2024/02/04 09:30:22;;;;;;;23.97;14.40;;;6.60;99.90;;;;;;6244632;23;20023;-73
2024/02/04 09:32:48;;;;;;;19.80;13.07;;;6.70;99.90;;;;;;6245208;23;20039;-73
2024/02/04 09:35:14;;;;;;;20.90;13.87;;;6.80;99.90;;;;;;6213205;23;20138;-73
2024/02/04 09:37:40;;;;;;;22.20;13.53;;;6.90;99.90;;;;;;6239798;23;20004;-73
2024/02/04 09:40:08;;;;;;;20.87;14.03;;;6.90;99.90;;;;;;6243138;23;20123;-73
2024/02/04 09:42:35;;;;;;;18.07;12.50;;;7.10;99.90;;;;;;6244093;23;20012;-73
2024/02/04 09:45:02;;;;;;;23.23;12.70;;;7.20;99.90;;;;;;6244568;23;20334;-73
2024/02/04 09:47:29;;;;;;;23.77;12.50;;;;;;;;;;6244799;23;20107;-73
2024/02/04 09:49:56;;;;;;;18.23;12.80;;;7.40;99.90;;;;;;6245047;23;20486;-73
2024/02/04 09:52:30;;;;;;;19.43;13.10;;;7.50;99.90;;;;;;6244926;23;20084;-72
2024/02/04 09:55:01;;;;;;;21.63;12.63;;;7.50;99.90;;;;;;6244785;23;20066;-74
2024/02/04 09:57:27;;;;;;;18.13;11.73;;;;;;;;;;6244731;23;20028;-72
2024/02/04 09:59:54;;;;;;;19.30;11.10;;;7.70;99.90;;;;;;6241765;23;20079;-72
2024/02/04 10:02:21;;;;;;;17.90;11.00;;;7.80;99.90;;;;;;6240213;23;20000;-72
2024/02/04 10:04:46;;;;;;;15.77;9.50;;;7.90;99.90;;;;;;6215212;23;20008;-71
2024/02/04 10:07:14;;;;;;;14.50;9.53;;;7.90;99.90;;;;;;6243465;23;20027;-73
2024/02/04 10:09:40;;;;;;;14.13;10.10;;;8.00;99.90;;;;;;6243360;23;20075;-73
2024/02/04 10:12:08;;;;;;;15.13;10.03;;;8.10;99.90;;;;;;6216472;23;20043;-72
2024/02/04 10:14:34;;;;;;;14.40;9.57;;;8.20;99.90;;;;;;6243137;23;20016;-72
2024/02/04 10:17:00;;;;;;;20.07;10.10;;;8.30;99.90;;;;;;6243165;23;20011;-72
2024/02/04 10:19:26;;;;;;;15.87;9.67;;;8.30;99.90;;;;;;6217342;23;20062;-72
2024/02/04 10:22:01;;;;;;;17.33;9.27;;;8.40;99.90;;;;;;6245229;23;20004;-73
2024/02/04 10:24:28;;;;;;;17.67;9.60;;;8.50;99.90;;;;;;6246959;23;20011;-72
2024/02/04 10:26:57;;;;;;;19.13;10.03;;;8.50;99.90;;;;;;6246725;23;20078;-73
2024/02/04 10:29:24;;;;;;;19.17;12.23;;;8.60;99.90;;;;;;6246568;23;20004;-72
2024/02/04 10:31:57;;;;;;;21.70;13.30;;;8.70;99.90;;;;;;6246736;23;20318;-73
2024/02/04 10:34:31;;;;;;;26.13;13.47;;;8.70;99.90;;;;;;6247114;23;20369;-73
2024/02/04 10:36:57;;;;;;;22.97;13.33;;;8.80;99.90;;;;;;6246645;23;20030;-73
2024/02/04 10:39:23;;;;;;;22.73;13.47;;;8.90;99.90;;;;;;6246434;23;20000;-72
2024/02/04 10:41:53;;;;;;;22.37;13.03;;;9.00;99.90;;;;;;6246317;23;20333;-71
2024/02/04 10:44:23;;;;;;;25.70;13.90;;;9.10;99.90;;;;;;6246928;23;20006;-73
2024/02/04 10:46:50;;;;;;;25.20;13.90;;;9.20;99.90;;;;;;6246701;23;20014;-73
2024/02/04 10:49:18;;;;;;;25.87;15.57;;;9.30;99.90;;;;;;6246662;23;20082;-73
2024/02/04 10:51:45;;;;;;;31.63;21.27;;;9.40;99.90;;;;;;6246044;23;20422;-74
2024/02/04 10:54:24;;;;;;;35.77;22.37;;;9.50;99.80;;;;;;6246723;23;20050;-73
2024/02/04 10:57:02;;;;;;;31.43;18.80;;;9.60;99.90;;;;;;6247023;23;20024;-73
2024/02/04 10:59:30;;;;;;;28.43;18.13;;;;;;;;;;6246747;23;19996;-73
2024/02/04 11:01:57;;;;;;;27.97;17.40;;;;;;;;;;6246553;23;20004;-73
2024/02/04 11:04:23;;;;;;;28.57;18.73;;;9.70;99.70;;;;;;6246531;23;20474;-73
2024/02/04 11:06:50;;;;;;;29.80;20.73;;;9.90;99.30;;;;;;6245849;23;20015;-74
2024/02/04 11:09:17;;;;;;;30.40;20.87;;;10.00;99.00;;;;;;6246214;23;20299;-74
2024/02/04 11:11:43;;;;;;;38.63;22.30;;;10.10;99.40;;;;;;6246011;23;20004;-72
2024/02/04 11:14:13;;;;;;;31.00;20.30;;;10.10;99.20;;;;;;6246312;23;20066;-71
2024/02/04 11:16:44;;;;;;;31.10;20.90;;;10.20;99.00;;;;;;6246032;23;20452;-71
2024/02/04 11:19:37;;;;;;;31.57;20.63;;;10.30;99.20;;;;;;6246099;23;20006;-71
2024/02/04 11:22:30;;;;;;;35.00;21.33;;;10.40;98.80;;;;;;6245794;23;20000;-71
2024/02/04 11:24:56;;;;;;;;;;;10.50;98.70;;;;;;6245292;23;20058;-71
2024/02/04 11:27:22;;;;;;;46.73;30.40;;;10.50;99.90;;;;;;6246156;23;19908;-72
2024/02/04 11:29:48;;;;;;;42.73;29.47;;;10.60;99.90;;;;;;6217684;23;20454;-71
2024/02/04 11:32:14;;;;;;;46.77;30.80;;;10.60;99.90;;;;;;6245569;23;20004;-71
2024/02/04 11:34:41;;;;;;;46.27;31.83;;;10.70;99.90;;;;;;6244788;23;20007;-71
2024/02/04 11:37:19;;;;;;;45.37;31.77;;;10.80;99.90;;;;;;6244701;23;20000;-73
2024/02/04 11:39:52;;;;;;;42.90;31.53;;;10.80;99.90;;;;;;6244946;23;20000;-73
2024/02/04 11:42:18;;;;;;;;;;;10.90;99.90;;;;;;6245791;23;20322;-73
2024/02/04 11:44:45;;;;;;;48.20;31.48;;;10.90;99.90;;;;;;6243959;23;19922;-73
2024/02/04 11:47:11;;;;;;;47.10;33.00;;;11.00;99.60;;;;;;6244175;23;20019;-73
2024/02/04 11:49:36;;;;;;;45.20;31.02;;;11.10;99.50;;;;;;6244489;23;20054;-73
2024/02/04 11:52:02;;;;;;;48.95;32.38;;;11.10;99.60;;;;;;6244028;23;20430;-73
2024/02/04 11:54:30;;;;;;;51.28;33.97;;;11.20;99.40;;;;;;6242952;23;20046;-73
2024/02/04 11:56:57;;;;;;;51.95;36.47;;;11.30;99.50;;;;;;6243789;23;20000;-73
2024/02/04 11:59:24;;;;;;;53.17;37.45;;;11.30;99.30;;;;;;6240927;23;20062;-73
2024/02/04 12:02:06;;;;;;;61.63;40.90;;;11.40;99.70;;;;;;6240694;23;20018;-73
2024/02/04 12:04:32;;;;;;;67.45;42.60;;;11.40;99.80;;;;;;6243083;23;20008;-73
2024/02/04 12:06:58;;;;;;;67.15;43.17;;;11.50;99.50;;;;;;6245104;23;20102;-72
2024/02/04 12:09:26;;;;;;;65.95;45.50;;;11.60;99.70;;;;;;6244628;23;20406;-72
2024/02/04 12:11:53;;;;;;;73.88;49.75;;;11.60;99.60;;;;;;6242278;23;20007;-72
2024/02/04 12:14:20;;;;;;;65.18;46.97;;;11.70;99.60;;;;;;6243745;23;20004;-72
2024/02/04 12:16:46;;;;;;;72.68;51.97;;;11.70;99.40;;;;;;6216505;23;20008;-73
2024/02/04 12:19:12;;;;;;;70.97;50.42;;;11.70;99.60;;;;;;6243546;23;20001;-73
2024/02/04 12:21:38;;;;;;;79.22;53.05;;;11.80;99.40;;;;;;6244895;23;20006;-72
2024/02/04 12:24:04;;;;;;;72.78;52.10;;;11.80;99.50;;;;;;6213412;23;20107;-73
2024/02/04 12:26:30;;;;;;;77.20;54.05;;;11.90;99.70;;;;;;6241185;23;20452;-74
2024/02/04 12:28:56;;;;;;;77.53;53.50;;;11.90;99.20;;;;;;6241563;23;20000;-72
2024/02/04 12:31:31;;;;;;;76.30;54.70;;;11.90;99.00;;;;;;6243512;23;20014;-74
2024/02/04 12:33:58;;;;;;;83.60;59.40;;;11.90;99.10;;;;;;6244327;23;20004;-74
2024/02/04 12:36:33;;;;;;;84.15;57.88;;;12.00;99.20;;;;;;6245650;23;20326;-73
2024/02/04 12:39:03;;;;;;;82.60;59.85;;;12.00;99.10;;;;;;6245329;23;20031;-73
2024/02/04 12:41:32;;;;;;;83.43;56.53;;;12.00;99.10;;;;;;6245651;23;20007;-73
2024/02/04 12:44:00;;;;;;;86.00;58.80;;;12.10;99.20;;;;;;6245660;23;20008;-73